Time;durP1;ratioP1;P1;durP2;ratioP2;P2;SDS_P1;SDS_P2;PMS_P1;PMS_P2;Temp;Humidity;BMP_temperature;BMP_pressure;BME280_temperature;BME280_humidity;BME280_pressure;Samples;Min_cycle;Max_cycle;Signal;HPM_P1;HPM_P2
2024/01/18 00:00:48;;;;;;;1.38;1.05;;;9.90;91.80;;;;;;5046736;28;20040;-64
2024/01/18 00:03:14;;;;;;;1.25;1.10;;;9.90;91.80;;;;;;5037492;28;20132;-63
2024/01/18 00:05:40;;;;;;;1.00;1.00;;;9.90;91.80;;;;;;5041270;28;20111;-64
2024/01/18 00:08:06;;;;;;;1.42;1.33;;;9.80;91.70;;;;;;5045492;28;20123;-63
2024/01/18 00:10:31;;;;;;;1.40;1.30;;;9.90;91.80;;;;;;5046405;28;20041;-65
2024/01/18 00:12:57;;;;;;;1.48;1.38;;;9.90;91.70;;;;;;5046182;28;20117;-63
2024/01/18 00:15:23;;;;;;;1.92;1.30;;;9.90;91.70;;;;;;5035035;28;20044;-63
2024/01/18 00:17:49;;;;;;;1.45;1.35;;;9.90;91.70;;;;;;5041085;28;20028;-64
2024/01/18 00:20:14;;;;;;;1.20;1.17;;;9.90;92.10;;;;;;5036129;28;20052;-63
2024/01/18 00:22:40;;;;;;;0.93;0.93;;;9.90;91.70;;;;;;5043307;28;20040;-64
2024/01/18 00:25:07;;;;;;;1.08;1.00;;;9.90;91.60;;;;;;5046074;28;20082;-63
2024/01/18 00:27:32;;;;;;;1.20;1.10;;;9.90;91.60;;;;;;5040002;28;20037;-62
2024/01/18 00:29:58;;;;;;;1.20;1.10;;;9.90;91.60;;;;;;5037807;28;20082;-63
2024/01/18 00:32:24;;;;;;;0.80;0.80;;;9.90;91.60;;;;;;5040336;28;21663;-62
2024/01/18 00:34:50;;;;;;;1.10;1.00;;;9.80;91.60;;;;;;5038527;28;20462;-64
2024/01/18 00:37:15;;;;;;;0.82;0.82;;;9.80;91.60;;;;;;5043468;28;20040;-63
2024/01/18 00:39:42;;;;;;;1.83;0.90;;;9.80;91.60;;;;;;5045138;28;20389;-63
2024/01/18 00:42:07;;;;;;;1.30;1.17;;;9.80;91.60;;;;;;5042781;28;20128;-63
2024/01/18 00:44:33;;;;;;;1.35;0.85;;;9.80;91.60;;;;;;5038604;28;20540;-63
2024/01/18 00:46:59;;;;;;;1.10;0.80;;;9.80;91.60;;;;;;5039155;28;20453;-62
2024/01/18 00:49:24;;;;;;;0.60;0.60;;;9.80;91.70;;;;;;5040696;28;20059;-63
2024/01/18 00:51:50;;;;;;;0.50;0.50;;;9.80;91.70;;;;;;5045272;28;20048;-63
2024/01/18 00:54:15;;;;;;;0.63;0.60;;;9.90;91.70;;;;;;5043385;28;20501;-63
2024/01/18 00:56:41;;;;;;;0.60;0.60;;;9.90;91.70;;;;;;5041839;28;20093;-62
2024/01/18 00:59:07;;;;;;;0.52;0.52;;;9.90;91.70;;;;;;5040051;28;20091;-63
2024/01/18 01:01:33;;;;;;;0.45;0.45;;;9.90;91.70;;;;;;5040660;28;20171;-62
2024/01/18 01:03:59;;;;;;;0.30;0.30;;;9.90;91.70;;;;;;5038062;28;20629;-60
2024/01/18 01:06:24;;;;;;;0.85;0.60;;;9.90;91.70;;;;;;5043463;28;20500;-63
2024/01/18 01:08:50;;;;;;;1.65;0.50;;;9.90;91.70;;;;;;5039420;28;20035;-63
2024/01/18 01:11:17;;;;;;;0.40;0.40;;;10.00;91.70;;;;;;5040946;28;20044;-63
2024/01/18 01:13:44;;;;;;;0.40;0.40;;;9.90;91.70;;;;;;5039972;28;20040;-63
2024/01/18 01:16:10;;;;;;;0.50;0.40;;;9.90;91.70;;;;;;5038997;28;20523;-64
2024/01/18 01:18:36;;;;;;;0.30;0.30;;;9.90;91.60;;;;;;5041546;28;20551;-63
2024/01/18 01:21:02;;;;;;;0.88;0.40;;;10.00;91.70;;;;;;5044311;28;20041;-64
2024/01/18 01:23:28;;;;;;;0.50;0.50;;;10.00;91.70;;;;;;5041661;28;20026;-63
2024/01/18 01:25:53;;;;;;;0.30;0.30;;;10.00;91.70;;;;;;5041454;28;20030;-63
2024/01/18 01:28:19;;;;;;;0.40;0.38;;;10.00;91.60;;;;;;5036253;28;20025;-63
2024/01/18 01:30:47;;;;;;;0.47;0.30;;;10.00;91.60;;;;;;5043157;28;20047;-64
2024/01/18 01:33:12;;;;;;;0.28;0.28;;;10.00;91.60;;;;;;5034321;28;20052;-64
2024/01/18 01:35:38;;;;;;;0.40;0.40;;;10.10;91.50;;;;;;5044825;28;20048;-64
2024/01/18 01:38:04;;;;;;;0.40;0.30;;;10.00;91.50;;;;;;5045940;28;20285;-62
2024/01/18 01:40:29;;;;;;;0.65;0.45;;;10.00;91.40;;;;;;5038167;28;20091;-64
2024/01/18 01:42:55;;;;;;;0.30;0.30;;;10.10;91.40;;;;;;5038760;28;20056;-64
2024/01/18 01:45:20;;;;;;;0.35;0.35;;;10.10;91.30;;;;;;5039936;28;20459;-64
2024/01/18 01:47:46;;;;;;;0.43;0.30;;;10.00;91.30;;;;;;5046398;28;20293;-63
2024/01/18 01:50:12;;;;;;;0.20;0.20;;;10.10;91.60;;;;;;5044756;28;20121;-63
2024/01/18 01:52:39;;;;;;;0.30;0.30;;;10.10;91.20;;;;;;5044746;28;20420;-62
2024/01/18 01:55:09;;;;;;;0.22;0.20;;;10.10;91.20;;;;;;5043829;28;20488;-63
2024/01/18 01:57:36;;;;;;;0.40;0.30;;;10.10;91.50;;;;;;5041106;28;20045;-63
2024/01/18 02:00:03;;;;;;;0.40;0.40;;;10.10;91.10;;;;;;5044505;28;20033;-63
2024/01/18 02:02:30;;;;;;;1.85;0.30;;;10.10;91.00;;;;;;5045014;28;20070;-64
2024/01/18 02:04:55;;;;;;;0.30;0.30;;;10.00;90.90;;;;;;5045272;28;20041;-63
2024/01/18 02:07:23;;;;;;;0.40;0.40;;;10.00;91.00;;;;;;5039857;28;20459;-63
2024/01/18 02:09:49;;;;;;;0.38;0.35;;;10.00;91.00;;;;;;5043192;28;20090;-64
2024/01/18 02:12:15;;;;;;;0.30;0.30;;;10.00;90.90;;;;;;5042315;28;20048;-64
2024/01/18 02:14:41;;;;;;;0.40;0.40;;;9.90;90.90;;;;;;5038693;28;20484;-64
2024/01/18 02:17:06;;;;;;;0.90;0.30;;;9.90;90.90;;;;;;5044030;28;20069;-64
2024/01/18 02:19:32;;;;;;;0.45;0.30;;;9.90;90.90;;;;;;5044869;28;20041;-64
2024/01/18 02:22:01;;;;;;;0.22;0.22;;;9.80;90.90;;;;;;5038355;28;20104;-65
2024/01/18 02:24:33;;;;;;;0.30;0.28;;;9.80;90.90;;;;;;5040092;28;20045;-64
2024/01/18 02:26:59;;;;;;;0.30;0.30;;;9.70;91.00;;;;;;5040536;28;20130;-64
2024/01/18 02:29:24;;;;;;;0.98;0.30;;;9.70;91.00;;;;;;5049296;28;20853;-64
2024/01/18 02:31:50;;;;;;;0.20;0.20;;;9.70;91.00;;;;;;5046118;28;20585;-64
2024/01/18 02:34:18;;;;;;;0.20;0.20;;;9.70;91.00;;;;;;5039557;28;20087;-63
2024/01/18 02:36:44;;;;;;;0.20;0.20;;;9.70;91.10;;;;;;5041339;28;20044;-63
2024/01/18 02:39:10;;;;;;;0.30;0.30;;;9.60;91.00;;;;;;5041319;28;20029;-64
2024/01/18 02:41:36;;;;;;;0.15;0.15;;;9.60;91.00;;;;;;5043059;28;20041;-64
2024/01/18 02:44:02;;;;;;;0.25;0.10;;;9.60;91.10;;;;;;5038731;28;20301;-63
2024/01/18 02:46:34;;;;;;;0.15;0.15;;;9.60;91.10;;;;;;5041022;28;20763;-63
2024/01/18 02:49:03;;;;;;;0.30;0.20;;;9.60;91.10;;;;;;5040733;28;20029;-63
2024/01/18 02:51:31;;;;;;;0.73;0.20;;;9.50;91.00;;;;;;5044577;28;20064;-64
2024/01/18 02:53:57;;;;;;;0.20;0.20;;;9.50;91.00;;;;;;5047025;28;20041;-63
2024/01/18 02:56:23;;;;;;;0.60;0.10;;;9.60;91.00;;;;;;5038499;28;20037;-63
2024/01/18 02:58:49;;;;;;;0.10;0.10;;;9.60;91.10;;;;;;5049481;28;20385;-63
2024/01/18 03:01:17;;;;;;;0.85;0.20;;;9.50;91.00;;;;;;5045646;28;20566;-63
2024/01/18 03:03:42;;;;;;;0.10;0.10;;;9.50;91.10;;;;;;5040550;28;20041;-63
2024/01/18 03:06:11;;;;;;;0.20;0.20;;;9.60;91.20;;;;;;5043309;28;20041;-64
2024/01/18 03:08:37;;;;;;;0.30;0.20;;;9.60;91.20;;;;;;5041460;28;20038;-64
2024/01/18 03:11:02;;;;;;;0.10;0.10;;;9.60;91.10;;;;;;5038933;28;20068;-62
2024/01/18 03:13:28;;;;;;;0.10;0.10;;;9.60;91.10;;;;;;5050154;28;20060;-63
2024/01/18 03:15:54;;;;;;;0.17;0.10;;;9.60;91.10;;;;;;5045625;28;20042;-63
2024/01/18 03:18:19;;;;;;;0.10;0.10;;;9.60;91.00;;;;;;5045507;28;20033;-63
2024/01/18 03:20:45;;;;;;;0.52;0.15;;;9.70;91.10;;;;;;5044162;28;20041;-63
2024/01/18 03:23:11;;;;;;;0.28;0.10;;;9.60;91.00;;;;;;5046056;28;20025;-62
2024/01/18 03:25:37;;;;;;;0.10;0.10;;;9.70;91.00;;;;;;5040437;28;20034;-64
2024/01/18 03:28:03;;;;;;;0.15;0.15;;;9.70;91.00;;;;;;5048251;28;20036;-63
2024/01/18 03:30:29;;;;;;;0.77;0.20;;;9.70;90.90;;;;;;5044284;28;20034;-63
2024/01/18 03:32:54;;;;;;;0.10;0.10;;;9.70;91.10;;;;;;5045072;28;20495;-62
2024/01/18 03:35:20;;;;;;;0.10;0.10;;;9.70;91.20;;;;;;5040189;28;20392;-63
2024/01/18 03:37:46;;;;;;;0.15;0.10;;;9.70;90.80;;;;;;5043613;28;20029;-63
2024/01/18 03:40:12;;;;;;;0.00;0.00;;;9.70;90.80;;;;;;5039054;28;20052;-63
2024/01/18 03:42:41;;;;;;;0.70;0.10;;;9.70;90.70;;;;;;5043489;28;20071;-63
2024/01/18 03:45:07;;;;;;;0.17;0.10;;;9.70;90.70;;;;;;5046548;28;20040;-63
2024/01/18 03:47:32;;;;;;;0.73;0.10;;;9.70;90.60;;;;;;5046629;28;20038;-64
2024/01/18 03:49:58;;;;;;;0.55;0.10;;;9.70;90.60;;;;;;5044829;28;20094;-62
2024/01/18 03:52:24;;;;;;;0.73;0.15;;;9.60;90.60;;;;;;5039478;28;20048;-63
2024/01/18 03:54:52;;;;;;;2.50;0.20;;;9.60;90.60;;;;;;5038849;28;20124;-64
2024/01/18 03:57:18;;;;;;;0.10;0.10;;;9.70;90.60;;;;;;5043174;28;20025;-63
2024/01/18 03:59:47;;;;;;;0.52;0.13;;;9.60;90.50;;;;;;5046979;28;20408;-63
2024/01/18 04:02:13;;;;;;;0.40;0.10;;;9.60;90.40;;;;;;5042843;28;20087;-63
2024/01/18 04:04:48;;;;;;;0.10;0.00;;;9.60;90.40;;;;;;5043019;28;20038;-63
2024/01/18 04:07:15;;;;;;;0.00;0.00;;;9.60;90.40;;;;;;5039567;28;20072;-63
2024/01/18 04:09:40;;;;;;;0.00;0.00;;;9.60;90.40;;;;;;5044155;28;20036;-63
2024/01/18 04:12:06;;;;;;;0.30;0.10;;;9.60;90.40;;;;;;5042333;28;20056;-63
2024/01/18 04:14:32;;;;;;;1.33;0.10;;;9.50;90.40;;;;;;5041634;28;20400;-63
2024/01/18 04:16:58;;;;;;;0.68;0.40;;;9.50;90.40;;;;;;5042487;28;20064;-63
2024/01/18 04:19:23;;;;;;;0.55;0.40;;;9.50;90.40;;;;;;5039771;28;20056;-63
2024/01/18 04:21:49;;;;;;;0.55;0.40;;;9.50;90.40;;;;;;5043196;28;20037;-63
2024/01/18 04:24:14;;;;;;;0.50;0.30;;;9.50;90.40;;;;;;5044110;28;20482;-63
2024/01/18 04:26:40;;;;;;;1.10;0.20;;;9.50;90.40;;;;;;5047684;28;20037;-62
2024/01/18 04:29:06;;;;;;;0.93;0.13;;;9.50;90.40;;;;;;5045218;28;20044;-63
2024/01/18 04:31:34;;;;;;;0.10;0.10;;;9.50;90.30;;;;;;5043853;28;20037;-63
2024/01/18 04:34:00;;;;;;;0.38;0.10;;;9.50;90.30;;;;;;5042294;28;20037;-64
2024/01/18 04:36:25;;;;;;;0.20;0.20;;;9.50;90.30;;;;;;5034870;28;20094;-63
2024/01/18 04:38:51;;;;;;;0.10;0.10;;;9.50;90.30;;;;;;5041619;28;20057;-62
2024/01/18 04:41:17;;;;;;;0.50;0.20;;;9.40;90.20;;;;;;5040217;28;20040;-61
2024/01/18 04:43:43;;;;;;;0.20;0.10;;;9.40;90.20;;;;;;5038601;28;20446;-61
2024/01/18 04:46:10;;;;;;;0.10;0.10;;;9.40;90.20;;;;;;5041198;28;20531;-64
2024/01/18 04:48:36;;;;;;;0.10;0.10;;;9.40;90.20;;;;;;5041101;28;20083;-63
2024/01/18 04:51:03;;;;;;;0.17;0.10;;;9.40;90.20;;;;;;5041434;28;20083;-63
2024/01/18 04:53:29;;;;;;;0.20;0.20;;;9.40;90.20;;;;;;5040977;28;20033;-64
2024/01/18 04:55:55;;;;;;;0.73;0.10;;;9.30;90.10;;;;;;5043327;28;20740;-63
2024/01/18 04:58:23;;;;;;;0.30;0.10;;;9.40;90.20;;;;;;5041470;28;20493;-63
2024/01/18 05:00:49;;;;;;;0.10;0.10;;;9.40;90.20;;;;;;5039704;28;20029;-63
2024/01/18 05:03:15;;;;;;;0.90;0.13;;;9.30;90.20;;;;;;5039934;28;20175;-63
2024/01/18 05:05:41;;;;;;;0.20;0.20;;;9.30;90.20;;;;;;5044818;28;20518;-62
2024/01/18 05:08:07;;;;;;;1.15;0.20;;;9.30;90.20;;;;;;5042347;28;20051;-63
2024/01/18 05:10:33;;;;;;;1.38;0.22;;;9.40;90.20;;;;;;5038935;28;20034;-63
2024/01/18 05:12:58;;;;;;;1.23;0.30;;;9.30;90.20;;;;;;5045142;28;20140;-64
2024/01/18 05:15:25;;;;;;;0.57;0.10;;;9.40;90.20;;;;;;5045440;28;20132;-63
2024/01/18 05:17:51;;;;;;;0.32;0.10;;;9.40;90.10;;;;;;5043407;28;20078;-63
2024/01/18 05:20:17;;;;;;;0.85;0.20;;;9.40;90.10;;;;;;5037336;28;20674;-62
2024/01/18 05:22:43;;;;;;;0.40;0.40;;;9.40;90.00;;;;;;5047028;28;20504;-63
2024/01/18 05:25:08;;;;;;;0.30;0.30;;;9.40;90.00;;;;;;5044391;28;20107;-63
2024/01/18 05:27:34;;;;;;;0.22;0.20;;;9.40;90.00;;;;;;5042663;28;20041;-63
2024/01/18 05:30:00;;;;;;;0.08;0.08;;;9.40;89.90;;;;;;5041727;28;20741;-63
2024/01/18 05:32:26;;;;;;;0.20;0.20;;;9.40;90.30;;;;;;5043208;28;20055;-62
2024/01/18 05:34:52;;;;;;;0.55;0.17;;;9.40;89.90;;;;;;5047587;28;20087;-63
2024/01/18 05:37:22;;;;;;;0.10;0.10;;;9.40;89.90;;;;;;5044930;28;20045;-63
2024/01/18 05:39:48;;;;;;;0.30;0.20;;;9.40;89.80;;;;;;5047910;28;20626;-61
2024/01/18 05:42:13;;;;;;;1.52;0.63;;;9.40;89.80;;;;;;5045209;28;20029;-63
2024/01/18 05:44:39;;;;;;;1.52;0.90;;;9.40;89.70;;;;;;5041387;28;20041;-62
2024/01/18 05:47:04;;;;;;;0.93;0.93;;;9.40;89.70;;;;;;5044019;28;20043;-62
2024/01/18 05:49:30;;;;;;;0.75;0.60;;;9.40;89.60;;;;;;5049476;28;20056;-63
2024/01/18 05:51:56;;;;;;;1.85;0.28;;;9.40;89.70;;;;;;5043602;28;20052;-63
2024/01/18 05:54:21;;;;;;;1.33;0.20;;;9.40;89.70;;;;;;5045820;28;20025;-63
2024/01/18 05:56:47;;;;;;;0.20;0.13;;;9.30;89.70;;;;;;5042593;28;20117;-62
2024/01/18 05:59:12;;;;;;;0.10;0.10;;;9.40;89.70;;;;;;5043380;28;20021;-62
2024/01/18 06:01:38;;;;;;;1.17;0.10;;;9.40;89.70;;;;;;5044438;28;20037;-62
2024/01/18 06:04:04;;;;;;;0.15;0.00;;;9.40;89.70;;;;;;5042287;28;20115;-62
2024/01/18 06:06:31;;;;;;;0.10;0.10;;;9.40;89.70;;;;;;5044241;28;20034;-63
2024/01/18 06:08:57;;;;;;;0.40;0.13;;;9.40;89.70;;;;;;5043947;28;20025;-63
2024/01/18 06:11:23;;;;;;;0.20;0.10;;;9.40;89.70;;;;;;5040259;28;20092;-63
2024/01/18 06:13:48;;;;;;;0.30;0.10;;;9.40;89.70;;;;;;5044120;28;20409;-62
2024/01/18 06:16:15;;;;;;;0.15;0.10;;;9.40;89.70;;;;;;5041157;28;20116;-62
2024/01/18 06:18:42;;;;;;;0.32;0.10;;;9.40;89.90;;;;;;5045064;28;20056;-63
2024/01/18 06:21:09;;;;;;;0.63;0.10;;;9.50;89.90;;;;;;5039804;28;20120;-63
2024/01/18 06:23:35;;;;;;;0.70;0.20;;;9.40;89.70;;;;;;5041276;28;20026;-61
2024/01/18 06:26:07;;;;;;;0.32;0.10;;;9.40;89.70;;;;;;5044874;28;20460;-62
2024/01/18 06:28:34;;;;;;;0.28;0.20;;;9.50;89.50;;;;;;5040164;28;20400;-62
2024/01/18 06:30:59;;;;;;;0.17;0.10;;;9.50;89.70;;;;;;5043798;28;20211;-62
2024/01/18 06:33:26;;;;;;;0.85;0.20;;;9.50;89.70;;;;;;5041467;28;20114;-63
2024/01/18 06:35:52;;;;;;;0.25;0.10;;;9.50;89.60;;;;;;5043585;28;20021;-61
2024/01/18 06:38:20;;;;;;;0.08;0.08;;;9.60;89.60;;;;;;5042965;28;20450;-62
2024/01/18 06:40:47;;;;;;;0.13;0.10;;;9.60;89.40;;;;;;5041415;28;20056;-62
2024/01/18 06:43:13;;;;;;;0.98;0.20;;;9.60;89.30;;;;;;5040216;28;20036;-63
2024/01/18 06:45:39;;;;;;;0.22;0.10;;;9.60;89.20;;;;;;5041196;28;20034;-63
2024/01/18 06:48:05;;;;;;;0.35;0.20;;;9.70;89.20;;;;;;5041873;28;20029;-63
2024/01/18 06:50:31;;;;;;;0.10;0.10;;;9.70;89.10;;;;;;5039925;28;20158;-62
2024/01/18 06:52:57;;;;;;;0.10;0.10;;;9.70;89.00;;;;;;5045118;28;20516;-62
2024/01/18 06:55:23;;;;;;;0.10;0.10;;;9.70;89.00;;;;;;5038695;28;20371;-62
2024/01/18 06:57:49;;;;;;;0.35;0.10;;;9.80;89.00;;;;;;5043775;28;20497;-61
2024/01/18 07:00:19;;;;;;;0.10;0.10;;;9.80;88.90;;;;;;5040277;28;20370;-63
2024/01/18 07:02:48;;;;;;;0.15;0.10;;;9.80;88.80;;;;;;5042760;28;20461;-62
2024/01/18 07:05:16;;;;;;;0.60;0.17;;;9.80;88.80;;;;;;5046485;28;20111;-60
2024/01/18 07:07:42;;;;;;;0.43;0.10;;;9.80;88.80;;;;;;5043436;28;20508;-63
2024/01/18 07:10:07;;;;;;;0.40;0.10;;;9.80;89.50;;;;;;5044867;28;20033;-62
2024/01/18 07:12:33;;;;;;;0.22;0.10;;;9.80;88.50;;;;;;5038752;28;20539;-62
2024/01/18 07:14:59;;;;;;;0.10;0.10;;;9.80;88.50;;;;;;5043948;28;20106;-63
2024/01/18 07:17:28;;;;;;;0.45;0.10;;;9.90;88.60;;;;;;5040899;28;20103;-61
2024/01/18 07:19:56;;;;;;;0.08;0.08;;;9.90;88.60;;;;;;5043189;28;20028;-62
2024/01/18 07:22:22;;;;;;;1.65;0.25;;;9.90;88.60;;;;;;5043081;28;20407;-61
2024/01/18 07:24:49;;;;;;;0.10;0.10;;;9.90;88.60;;;;;;5042482;28;20061;-63
2024/01/18 07:27:15;;;;;;;0.10;0.10;;;9.90;88.50;;;;;;5042747;28;20036;-63
2024/01/18 07:29:43;;;;;;;0.10;0.10;;;9.90;88.50;;;;;;5039827;28;20038;-63
2024/01/18 07:32:09;;;;;;;0.82;0.10;;;9.90;88.40;;;;;;5040157;28;20061;-63
2024/01/18 07:34:35;;;;;;;0.20;0.10;;;10.00;88.50;;;;;;5041157;28;20050;-60
2024/01/18 07:37:01;;;;;;;0.20;0.15;;;9.90;88.40;;;;;;5043713;28;20017;-61
2024/01/18 07:39:27;;;;;;;0.40;0.10;;;9.90;88.40;;;;;;5038539;28;20025;-62
2024/01/18 07:41:53;;;;;;;0.30;0.20;;;9.90;88.30;;;;;;5043636;28;20132;-63
2024/01/18 07:44:19;;;;;;;0.10;0.00;;;9.90;88.40;;;;;;5038898;28;20037;-61
2024/01/18 07:46:45;;;;;;;0.17;0.10;;;10.00;88.50;;;;;;5041696;28;20029;-62
2024/01/18 07:49:10;;;;;;;2.55;0.10;;;10.00;88.40;;;;;;5044894;28;20435;-63
2024/01/18 07:51:36;;;;;;;0.00;0.00;;;10.00;88.30;;;;;;5038967;28;20072;-63
2024/01/18 07:54:03;;;;;;;1.08;0.00;;;10.00;88.40;;;;;;5040007;28;20185;-63
2024/01/18 07:56:28;;;;;;;0.00;0.00;;;10.00;88.30;;;;;;5038639;28;20432;-61
2024/01/18 07:58:54;;;;;;;0.17;0.10;;;10.00;88.30;;;;;;5042174;28;20039;-63
2024/01/18 08:01:19;;;;;;;0.30;0.10;;;10.00;88.20;;;;;;5038103;28;20103;-63
2024/01/18 08:03:48;;;;;;;0.10;0.10;;;10.00;88.30;;;;;;5042579;28;20121;-63
2024/01/18 08:06:19;;;;;;;0.00;0.00;;;10.10;88.30;;;;;;5041681;28;20131;-63
2024/01/18 08:08:47;;;;;;;0.10;0.10;;;10.10;88.10;;;;;;5042358;28;20090;-62
2024/01/18 08:11:13;;;;;;;0.10;0.00;;;10.10;88.10;;;;;;5040795;28;20576;-62
2024/01/18 08:13:40;;;;;;;0.00;0.00;;;10.20;88.20;;;;;;5040496;28;20037;-62
2024/01/18 08:16:07;;;;;;;0.03;0.00;;;10.20;88.20;;;;;;5040362;28;20113;-61
2024/01/18 08:18:33;;;;;;;0.40;0.10;;;10.20;88.10;;;;;;5041717;28;20493;-63
2024/01/18 08:20:59;;;;;;;0.10;0.10;;;10.30;88.20;;;;;;5045737;28;20049;-63
2024/01/18 08:23:25;;;;;;;0.45;0.15;;;10.20;88.00;;;;;;5038845;28;20405;-63
2024/01/18 08:25:51;;;;;;;1.20;0.40;;;10.30;87.80;;;;;;5042606;28;20045;-62
2024/01/18 08:28:18;;;;;;;0.17;0.17;;;10.30;87.80;;;;;;5038420;28;20040;-63
2024/01/18 08:30:47;;;;;;;0.45;0.10;;;10.40;87.60;;;;;;5038146;28;20034;-63
2024/01/18 08:33:12;;;;;;;0.30;0.10;;;10.40;87.40;;;;;;5040738;28;20033;-62
2024/01/18 08:35:38;;;;;;;0.10;0.10;;;10.40;87.30;;;;;;5040382;28;20524;-63
2024/01/18 08:38:04;;;;;;;1.35;0.32;;;10.50;87.10;;;;;;5040071;28;20040;-62
2024/01/18 08:40:30;;;;;;;0.00;0.00;;;10.40;86.90;;;;;;5037428;28;20037;-62
2024/01/18 08:42:56;;;;;;;0.20;0.10;;;10.50;86.90;;;;;;5040711;28;20041;-62
2024/01/18 08:45:23;;;;;;;0.30;0.13;;;10.50;87.50;;;;;;5040037;28;20256;-62
2024/01/18 08:47:49;;;;;;;0.20;0.17;;;10.60;86.70;;;;;;5039656;28;20056;-63
2024/01/18 08:50:15;;;;;;;0.43;0.10;;;10.50;86.60;;;;;;5040868;28;20060;-62
2024/01/18 08:52:44;;;;;;;0.13;0.10;;;10.50;86.40;;;;;;5039631;28;20450;-63
2024/01/18 08:55:09;;;;;;;0.10;0.10;;;10.60;86.60;;;;;;5036404;28;20029;-62
2024/01/18 08:57:35;;;;;;;0.10;0.10;;;10.60;86.50;;;;;;5039156;28;20041;-62
2024/01/18 09:00:01;;;;;;;0.20;0.20;;;10.60;86.40;;;;;;5040333;28;20116;-63
2024/01/18 09:02:27;;;;;;;0.20;0.20;;;10.60;86.40;;;;;;5040731;28;20037;-63
2024/01/18 09:04:52;;;;;;;0.10;0.10;;;10.60;86.60;;;;;;5045087;28;20397;-62
2024/01/18 09:07:18;;;;;;;0.10;0.10;;;10.60;86.80;;;;;;5036396;28;20040;-62
2024/01/18 09:09:45;;;;;;;0.73;0.22;;;10.60;87.10;;;;;;5045153;28;20040;-62
2024/01/18 09:12:11;;;;;;;0.88;0.38;;;10.60;87.30;;;;;;5041165;28;20037;-61
2024/01/18 09:14:37;;;;;;;0.82;0.40;;;10.60;87.50;;;;;;5043334;28;20041;-62
2024/01/18 09:17:03;;;;;;;0.50;0.30;;;10.60;87.70;;;;;;5041991;28;20040;-62
2024/01/18 09:19:30;;;;;;;0.28;0.10;;;10.60;87.90;;;;;;5039486;28;20032;-63
2024/01/18 09:21:59;;;;;;;1.70;0.10;;;10.60;88.10;;;;;;5038427;28;20041;-63
2024/01/18 09:24:27;;;;;;;0.10;0.10;;;10.70;88.30;;;;;;5041921;28;20053;-63
2024/01/18 09:26:53;;;;;;;0.15;0.10;;;10.70;88.30;;;;;;5042981;28;20033;-61
2024/01/18 09:29:18;;;;;;;0.30;0.10;;;10.80;88.30;;;;;;5039441;28;20024;-63
2024/01/18 09:31:44;;;;;;;0.10;0.10;;;10.90;88.40;;;;;;5042485;28;20029;-62
2024/01/18 09:34:10;;;;;;;0.10;0.03;;;10.90;88.30;;;;;;5039094;28;20029;-62
2024/01/18 09:36:37;;;;;;;0.52;0.10;;;10.90;88.30;;;;;;5035483;28;20036;-62
2024/01/18 09:39:04;;;;;;;0.15;0.08;;;11.00;88.30;;;;;;5044992;28;20067;-63
2024/01/18 09:41:35;;;;;;;0.10;0.10;;;11.00;88.30;;;;;;5036340;28;20479;-63
2024/01/18 09:44:03;;;;;;;0.10;0.10;;;11.00;88.10;;;;;;5040880;28;20455;-62
2024/01/18 09:46:29;;;;;;;0.15;0.10;;;11.10;88.10;;;;;;5036605;28;20038;-63
2024/01/18 09:48:56;;;;;;;0.32;0.10;;;11.10;88.00;;;;;;5040848;28;20036;-63
2024/01/18 09:51:23;;;;;;;0.10;0.03;;;11.20;88.00;;;;;;5041464;28;20582;-62
2024/01/18 09:53:56;;;;;;;0.05;0.03;;;11.20;87.90;;;;;;5040397;28;20057;-63
2024/01/18 09:56:26;;;;;;;0.10;0.10;;;11.20;87.80;;;;;;5036602;28;20022;-63
2024/01/18 09:58:53;;;;;;;0.28;0.10;;;11.30;87.70;;;;;;5041039;28;20048;-63
2024/01/18 10:01:20;;;;;;;0.30;0.20;;;11.40;87.60;;;;;;5040849;28;20111;-63
2024/01/18 10:03:48;;;;;;;0.20;0.15;;;11.40;87.50;;;;;;5037788;28;20026;-62
2024/01/18 10:06:17;;;;;;;0.10;0.10;;;11.40;87.40;;;;;;5040907;28;20037;-63
2024/01/18 10:08:47;;;;;;;0.13;0.10;;;11.50;87.40;;;;;;5046206;28;20031;-62
2024/01/18 10:11:13;;;;;;;0.17;0.10;;;11.50;87.30;;;;;;5042812;28;20021;-63
2024/01/18 10:13:51;;;;;;;0.17;0.10;;;11.50;87.30;;;;;;5041645;28;20033;-62
2024/01/18 10:16:28;;;;;;;0.30;0.10;;;11.60;86.60;;;;;;5039782;28;20412;-61
2024/01/18 10:18:57;;;;;;;0.40;0.20;;;11.60;86.60;;;;;;5043228;28;20040;-62
2024/01/18 10:21:26;;;;;;;0.20;0.20;;;11.70;86.70;;;;;;5040077;28;20523;-60
2024/01/18 10:23:53;;;;;;;2.22;0.20;;;11.80;86.80;;;;;;5043964;28;20417;-60
2024/01/18 10:26:26;;;;;;;0.47;0.10;;;11.70;86.60;;;;;;5043016;28;20373;-63
2024/01/18 10:28:52;;;;;;;0.30;0.20;;;11.80;86.70;;;;;;5041865;28;20033;-63
2024/01/18 10:31:19;;;;;;;0.15;0.10;;;11.90;86.40;;;;;;5044479;28;20515;-63
2024/01/18 10:33:46;;;;;;;0.63;0.28;;;11.90;86.40;;;;;;5045140;28;20068;-63
2024/01/18 10:36:12;;;;;;;0.22;0.10;;;11.90;86.20;;;;;;5041125;28;20052;-63
2024/01/18 10:38:39;;;;;;;0.43;0.30;;;12.00;86.60;;;;;;5042591;28;20065;-61
2024/01/18 10:41:07;;;;;;;0.30;0.10;;;12.00;85.80;;;;;;5043521;28;20029;-62
2024/01/18 10:43:34;;;;;;;0.10;0.10;;;12.10;85.70;;;;;;5040924;28;20064;-61
2024/01/18 10:46:00;;;;;;;0.60;0.10;;;12.20;85.70;;;;;;5048970;28;20029;-63
2024/01/18 10:48:27;;;;;;;0.20;0.10;;;12.20;85.30;;;;;;5039135;28;20026;-61
2024/01/18 10:50:56;;;;;;;0.00;0.00;;;12.20;84.90;;;;;;5045122;28;20113;-62
2024/01/18 10:53:24;;;;;;;1.50;0.20;;;12.30;85.30;;;;;;5039012;28;20044;-61
2024/01/18 10:55:51;;;;;;;0.10;0.10;;;12.30;84.20;;;;;;5041771;28;20129;-62
2024/01/18 10:58:17;;;;;;;0.20;0.15;;;12.30;84.50;;;;;;5039611;28;20341;-63
2024/01/18 11:00:46;;;;;;;0.90;0.40;;;12.30;84.10;;;;;;5041584;28;20118;-62
2024/01/18 11:03:13;;;;;;;1.00;0.38;;;12.30;84.00;;;;;;5042518;28;20032;-63
2024/01/18 11:05:45;;;;;;;0.10;0.10;;;12.30;83.80;;;;;;5041014;28;20416;-63
2024/01/18 11:08:15;;;;;;;0.10;0.10;;;12.30;84.00;;;;;;5043428;28;20061;-62
2024/01/18 11:10:42;;;;;;;0.10;0.10;;;12.30;84.10;;;;;;5042956;28;20400;-63
2024/01/18 11:13:09;;;;;;;0.20;0.10;;;12.30;84.30;;;;;;5042639;28;20047;-61
2024/01/18 11:15:41;;;;;;;0.03;0.03;;;12.30;84.40;;;;;;5039477;28;20078;-63
2024/01/18 11:18:12;;;;;;;0.20;0.10;;;12.30;84.00;;;;;;5045760;28;20116;-63
2024/01/18 11:21:13;;;;;;;0.00;0.00;;;12.30;83.80;;;;;;5042449;28;20047;-63
2024/01/18 11:23:40;;;;;;;0.10;0.10;;;12.40;83.20;;;;;;4962550;28;20126;-63
2024/01/18 11:26:08;;;;;;;1.48;0.10;;;12.40;83.80;;;;;;5029957;28;20041;-61
2024/01/18 11:28:34;;;;;;;0.32;0.32;;;12.40;83.80;;;;;;5040332;28;20404;-63
2024/01/18 11:31:01;;;;;;;0.68;0.10;;;12.30;83.80;;;;;;5043891;28;20085;-60
2024/01/18 11:33:31;;;;;;;0.10;0.10;;;12.40;84.00;;;;;;5041257;28;20106;-63
2024/01/18 11:35:58;;;;;;;0.60;0.20;;;12.30;83.70;;;;;;5038128;28;20337;-63
2024/01/18 11:38:25;;;;;;;0.25;0.20;;;12.30;83.80;;;;;;5042146;28;20041;-62
2024/01/18 11:40:53;;;;;;;0.15;0.05;;;12.40;83.80;;;;;;5044911;28;20040;-62
2024/01/18 11:43:24;;;;;;;0.10;0.10;;;12.30;83.60;;;;;;5041419;28;20213;-63
2024/01/18 11:45:54;;;;;;;0.10;0.10;;;12.40;83.80;;;;;;5043226;28;20405;-62
2024/01/18 11:48:19;;;;;;;0.10;0.10;;;12.40;83.60;;;;;;5038557;28;20094;-63
2024/01/18 11:50:45;;;;;;;0.05;0.00;;;12.40;83.70;;;;;;5042057;28;20034;-60
2024/01/18 11:53:14;;;;;;;0.10;0.10;;;12.40;84.10;;;;;;5041973;28;20508;-63
2024/01/18 11:55:47;;;;;;;0.20;0.17;;;12.30;83.70;;;;;;5039785;28;20040;-62
2024/01/18 11:58:14;;;;;;;0.10;0.10;;;12.30;83.60;;;;;;5038492;28;20051;-61
2024/01/18 12:00:40;;;;;;;0.10;0.10;;;12.30;83.80;;;;;;5040336;28;20029;-63
2024/01/18 12:03:09;;;;;;;1.08;0.10;;;12.30;83.80;;;;;;5039662;28;20110;-62
2024/01/18 12:05:35;;;;;;;0.30;0.10;;;12.30;84.00;;;;;;5040522;28;20045;-63
2024/01/18 12:08:01;;;;;;;0.82;0.17;;;12.30;84.10;;;;;;5044054;28;20056;-63
2024/01/18 12:10:26;;;;;;;0.20;0.10;;;12.30;84.00;;;;;;5040790;28;20053;-60
2024/01/18 12:12:58;;;;;;;0.28;0.17;;;12.30;84.10;;;;;;5040848;28;20526;-62
2024/01/18 12:15:24;;;;;;;0.10;0.10;;;12.20;84.20;;;;;;5038548;28;20033;-63
2024/01/18 12:17:53;;;;;;;0.50;0.20;;;12.30;84.30;;;;;;5044470;28;20611;-61
2024/01/18 12:20:19;;;;;;;0.68;0.20;;;12.20;84.30;;;;;;5036916;28;20500;-62
2024/01/18 12:22:45;;;;;;;0.60;0.35;;;12.20;84.50;;;;;;5042355;28;20029;-62
2024/01/18 12:25:10;;;;;;;0.10;0.10;;;12.20;85.50;;;;;;5041827;28;20036;-62
2024/01/18 12:27:36;;;;;;;0.10;0.10;;;12.20;84.70;;;;;;5038296;28;20501;-62
2024/01/18 12:30:03;;;;;;;0.70;0.20;;;12.20;84.80;;;;;;5042108;28;20048;-62
2024/01/18 12:32:29;;;;;;;0.60;0.20;;;12.20;85.10;;;;;;5038422;28;20036;-62
2024/01/18 12:34:58;;;;;;;0.32;0.10;;;12.20;85.30;;;;;;5042132;28;20036;-64
2024/01/18 12:37:24;;;;;;;0.20;0.20;;;12.20;85.50;;;;;;5039996;28;20029;-63
2024/01/18 12:39:53;;;;;;;0.30;0.10;;;12.20;85.70;;;;;;5039786;28;20036;-63
2024/01/18 12:42:20;;;;;;;0.70;0.20;;;12.10;81.30;;;;;;5045557;28;20317;-64
2024/01/18 12:44:51;;;;;;;0.52;0.20;;;12.00;74.80;;;;;;5037997;28;20037;-64
2024/01/18 12:47:16;;;;;;;0.65;0.40;;;11.50;70.90;;;;;;5037418;28;20036;-64
2024/01/18 12:49:42;;;;;;;1.40;0.93;;;11.00;71.60;;;;;;5040509;28;20404;-64